sensor_id;sensor_type;location;lat;lon;timestamp;pressure;altitude;pressure_sealevel;temperature;humidity
27729;BME280;15126;42.186;24.340;2023-04-24T00:01:56;99181.19;;;11.73;72.88
27729;BME280;15126;42.186;24.340;2023-04-24T00:04:23;99179.69;;;11.68;72.15
27729;BME280;15126;42.186;24.340;2023-04-24T00:06:51;99177.78;;;11.65;71.84
27729;BME280;15126;42.186;24.340;2023-04-24T00:09:19;99186.59;;;11.64;71.63
27729;BME280;15126;42.186;24.340;2023-04-24T00:11:47;99170.47;;;11.55;72.30
27729;BME280;15126;42.186;24.340;2023-04-24T00:14:14;99188.00;;;11.56;72.19
27729;BME280;15126;42.186;24.340;2023-04-24T00:16:41;99191.69;;;11.53;72.15
27729;BME280;15126;42.186;24.340;2023-04-24T00:19:08;99196.06;;;11.54;72.14
27729;BME280;15126;42.186;24.340;2023-04-24T00:21:35;99180.50;;;11.53;72.57
27729;BME280;15126;42.186;24.340;2023-04-24T00:24:01;99192.56;;;11.50;73.07
27729;BME280;15126;42.186;24.340;2023-04-24T00:26:28;99190.22;;;11.48;73.11
27729;BME280;15126;42.186;24.340;2023-04-24T00:28:56;99192.31;;;11.44;73.31
27729;BME280;15126;42.186;24.340;2023-04-24T00:31:23;99191.09;;;11.45;73.00
27729;BME280;15126;42.186;24.340;2023-04-24T00:33:50;99197.13;;;11.44;73.21
27729;BME280;15126;42.186;24.340;2023-04-24T00:36:16;99190.41;;;11.41;73.29
27729;BME280;15126;42.186;24.340;2023-04-24T00:38:45;99195.63;;;11.39;72.96
27729;BME280;15126;42.186;24.340;2023-04-24T00:41:11;99203.25;;;11.39;73.01
27729;BME280;15126;42.186;24.340;2023-04-24T00:43:39;99201.06;;;11.30;72.74
27729;BME280;15126;42.186;24.340;2023-04-24T00:46:07;99199.06;;;11.30;72.56
27729;BME280;15126;42.186;24.340;2023-04-24T00:48:34;99193.91;;;11.29;72.35
27729;BME280;15126;42.186;24.340;2023-04-24T00:51:01;99191.56;;;11.27;72.79
27729;BME280;15126;42.186;24.340;2023-04-24T00:53:28;99188.94;;;11.20;73.04
27729;BME280;15126;42.186;24.340;2023-04-24T00:55:55;99185.03;;;11.18;73.20
27729;BME280;15126;42.186;24.340;2023-04-24T00:58:22;99185.81;;;11.18;73.69
27729;BME280;15126;42.186;24.340;2023-04-24T01:00:50;99184.53;;;10.91;74.63
27729;BME280;15126;42.186;24.340;2023-04-24T01:03:21;99190.44;;;10.93;74.97
27729;BME280;15126;42.186;24.340;2023-04-24T01:05:49;99185.22;;;10.79;75.47
27729;BME280;15126;42.186;24.340;2023-04-24T01:08:16;99176.75;;;10.66;75.83
27729;BME280;15126;42.186;24.340;2023-04-24T01:10:43;99185.38;;;10.55;75.85
27729;BME280;15126;42.186;24.340;2023-04-24T01:13:11;99194.25;;;10.50;76.62
27729;BME280;15126;42.186;24.340;2023-04-24T01:15:38;99186.59;;;10.54;76.05
27729;BME280;15126;42.186;24.340;2023-04-24T01:18:05;99183.72;;;10.58;75.79
27729;BME280;15126;42.186;24.340;2023-04-24T01:20:33;99170.38;;;10.49;76.15
27729;BME280;15126;42.186;24.340;2023-04-24T01:23:03;99175.19;;;10.49;76.14
27729;BME280;15126;42.186;24.340;2023-04-24T01:25:30;99168.97;;;10.41;77.29
27729;BME280;15126;42.186;24.340;2023-04-24T01:27:57;99169.34;;;10.43;77.73
27729;BME280;15126;42.186;24.340;2023-04-24T01:30:24;99170.06;;;10.28;78.83
27729;BME280;15126;42.186;24.340;2023-04-24T01:32:51;99161.00;;;10.24;79.09
27729;BME280;15126;42.186;24.340;2023-04-24T01:35:19;99163.53;;;10.18;79.10
27729;BME280;15126;42.186;24.340;2023-04-24T01:37:46;99158.03;;;10.14;79.39
27729;BME280;15126;42.186;24.340;2023-04-24T01:40:14;99162.66;;;10.21;79.03
27729;BME280;15126;42.186;24.340;2023-04-24T01:42:41;99158.63;;;10.22;79.08
27729;BME280;15126;42.186;24.340;2023-04-24T01:45:11;99139.00;;;10.09;79.48
27729;BME280;15126;42.186;24.340;2023-04-24T01:47:38;99154.72;;;10.20;79.82
27729;BME280;15126;42.186;24.340;2023-04-24T01:50:06;99148.38;;;10.19;80.46
27729;BME280;15126;42.186;24.340;2023-04-24T01:52:33;99150.28;;;10.22;80.37
27729;BME280;15126;42.186;24.340;2023-04-24T01:55:01;99147.59;;;10.19;80.42
27729;BME280;15126;42.186;24.340;2023-04-24T01:57:30;99136.56;;;10.11;80.28
27729;BME280;15126;42.186;24.340;2023-04-24T01:59:58;99142.97;;;10.28;79.85
27729;BME280;15126;42.186;24.340;2023-04-24T02:02:25;99150.41;;;10.35;79.57
27729;BME280;15126;42.186;24.340;2023-04-24T02:04:52;99140.53;;;10.30;79.87
27729;BME280;15126;42.186;24.340;2023-04-24T02:07:19;99142.06;;;10.35;79.74
27729;BME280;15126;42.186;24.340;2023-04-24T02:09:46;99151.88;;;10.39;79.22
27729;BME280;15126;42.186;24.340;2023-04-24T02:12:13;99152.94;;;10.45;78.90
27729;BME280;15126;42.186;24.340;2023-04-24T02:14:41;99143.88;;;10.41;78.71
27729;BME280;15126;42.186;24.340;2023-04-24T02:17:08;99146.13;;;10.30;79.29
27729;BME280;15126;42.186;24.340;2023-04-24T02:19:38;99134.56;;;10.32;79.32
27729;BME280;15126;42.186;24.340;2023-04-24T02:22:05;99134.56;;;10.32;78.94
27729;BME280;15126;42.186;24.340;2023-04-24T02:24:32;99117.56;;;10.42;78.66
27729;BME280;15126;42.186;24.340;2023-04-24T02:26:59;99116.72;;;10.45;78.34
27729;BME280;15126;42.186;24.340;2023-04-24T02:29:25;99118.44;;;10.55;78.89
27729;BME280;15126;42.186;24.340;2023-04-24T02:31:53;99117.13;;;10.60;78.20
27729;BME280;15126;42.186;24.340;2023-04-24T02:34:20;99115.13;;;10.60;78.40
27729;BME280;15126;42.186;24.340;2023-04-24T02:36:48;99114.59;;;10.65;78.03
27729;BME280;15126;42.186;24.340;2023-04-24T02:39:15;99114.25;;;10.63;78.22
27729;BME280;15126;42.186;24.340;2023-04-24T02:41:42;99106.25;;;10.65;78.24
27729;BME280;15126;42.186;24.340;2023-04-24T02:44:09;99113.06;;;10.64;76.33
27729;BME280;15126;42.186;24.340;2023-04-24T02:46:36;99111.94;;;10.62;76.83
27729;BME280;15126;42.186;24.340;2023-04-24T02:49:04;99106.34;;;10.62;76.28
27729;BME280;15126;42.186;24.340;2023-04-24T02:51:31;99115.59;;;10.59;77.14
27729;BME280;15126;42.186;24.340;2023-04-24T02:53:58;99110.94;;;10.52;78.09
27729;BME280;15126;42.186;24.340;2023-04-24T02:56:25;99134.91;;;10.50;78.11
27729;BME280;15126;42.186;24.340;2023-04-24T02:58:51;99132.63;;;10.29;78.18
27729;BME280;15126;42.186;24.340;2023-04-24T03:01:18;99117.09;;;10.28;77.55
27729;BME280;15126;42.186;24.340;2023-04-24T03:03:45;99130.03;;;10.38;77.23
27729;BME280;15126;42.186;24.340;2023-04-24T03:06:13;99132.72;;;10.41;76.55
27729;BME280;15126;42.186;24.340;2023-04-24T03:08:40;99121.22;;;10.39;77.54
27729;BME280;15126;42.186;24.340;2023-04-24T03:11:07;99126.28;;;10.44;77.21
27729;BME280;15126;42.186;24.340;2023-04-24T03:13:34;99123.06;;;10.46;77.51
27729;BME280;15126;42.186;24.340;2023-04-24T03:16:01;99127.00;;;10.48;77.42
27729;BME280;15126;42.186;24.340;2023-04-24T03:18:27;99124.53;;;10.50;76.84
27729;BME280;15126;42.186;24.340;2023-04-24T03:20:54;99142.00;;;10.54;76.63
27729;BME280;15126;42.186;24.340;2023-04-24T03:23:23;99127.00;;;10.48;77.00
27729;BME280;15126;42.186;24.340;2023-04-24T03:25:49;99148.31;;;10.55;77.06
27729;BME280;15126;42.186;24.340;2023-04-24T03:28:16;99140.22;;;10.60;76.40
27729;BME280;15126;42.186;24.340;2023-04-24T03:30:43;99147.31;;;10.65;75.86
27729;BME280;15126;42.186;24.340;2023-04-24T03:33:10;99154.53;;;10.62;76.80
27729;BME280;15126;42.186;24.340;2023-04-24T03:35:36;99157.69;;;10.64;76.66
27729;BME280;15126;42.186;24.340;2023-04-24T03:38:03;99151.75;;;10.62;76.84
27729;BME280;15126;42.186;24.340;2023-04-24T03:40:32;99159.22;;;10.65;76.68
27729;BME280;15126;42.186;24.340;2023-04-24T03:42:59;99151.22;;;10.67;76.74
27729;BME280;15126;42.186;24.340;2023-04-24T03:45:25;99156.97;;;10.60;77.51
27729;BME280;15126;42.186;24.340;2023-04-24T03:47:52;99162.78;;;10.50;78.63
27729;BME280;15126;42.186;24.340;2023-04-24T03:50:19;99153.63;;;10.33;80.19
27729;BME280;15126;42.186;24.340;2023-04-24T03:52:46;99153.19;;;10.35;79.81
27729;BME280;15126;42.186;24.340;2023-04-24T03:55:12;99156.41;;;10.33;79.05
27729;BME280;15126;42.186;24.340;2023-04-24T03:57:41;99154.56;;;10.27;79.83
27729;BME280;15126;42.186;24.340;2023-04-24T04:00:08;99156.78;;;10.35;79.62
27729;BME280;15126;42.186;24.340;2023-04-24T04:02:35;99148.69;;;10.41;79.56
27729;BME280;15126;42.186;24.340;2023-04-24T04:05:02;99145.78;;;10.44;79.92
27729;BME280;15126;42.186;24.340;2023-04-24T04:07:29;99148.91;;;10.46;80.52
27729;BME280;15126;42.186;24.340;2023-04-24T04:09:56;99135.88;;;10.59;79.51
27729;BME280;15126;42.186;24.340;2023-04-24T04:12:22;99138.50;;;10.66;79.05
27729;BME280;15126;42.186;24.340;2023-04-24T04:14:51;99136.75;;;10.72;79.05
27729;BME280;15126;42.186;24.340;2023-04-24T04:17:17;99138.41;;;10.86;78.22
27729;BME280;15126;42.186;24.340;2023-04-24T04:19:44;99141.34;;;10.95;78.29
27729;BME280;15126;42.186;24.340;2023-04-24T04:22:11;99144.56;;;11.10;77.35
27729;BME280;15126;42.186;24.340;2023-04-24T04:24:38;99132.59;;;11.25;77.03
27729;BME280;15126;42.186;24.340;2023-04-24T04:27:06;99143.88;;;11.51;76.96
27729;BME280;15126;42.186;24.340;2023-04-24T04:29:33;99138.72;;;11.78;75.17
27729;BME280;15126;42.186;24.340;2023-04-24T04:32:02;99155.91;;;12.18;71.41
27729;BME280;15126;42.186;24.340;2023-04-24T04:34:29;99149.69;;;12.39;71.02
27729;BME280;15126;42.186;24.340;2023-04-24T04:36:57;99145.88;;;12.58;69.02
27729;BME280;15126;42.186;24.340;2023-04-24T04:39:26;99147.31;;;12.63;69.74
27729;BME280;15126;42.186;24.340;2023-04-24T04:41:53;99140.69;;;12.69;69.72
27729;BME280;15126;42.186;24.340;2023-04-24T04:44:20;99138.38;;;12.68;69.12
27729;BME280;15126;42.186;24.340;2023-04-24T04:46:49;99151.25;;;12.65;68.23
27729;BME280;15126;42.186;24.340;2023-04-24T04:49:19;99149.78;;;12.73;68.61
27729;BME280;15126;42.186;24.340;2023-04-24T04:51:47;99140.34;;;12.92;69.76
27729;BME280;15126;42.186;24.340;2023-04-24T04:54:13;99144.00;;;13.02;66.48
27729;BME280;15126;42.186;24.340;2023-04-24T04:56:41;99139.97;;;13.16;67.21
27729;BME280;15126;42.186;24.340;2023-04-24T04:59:07;99143.44;;;13.20;67.74
27729;BME280;15126;42.186;24.340;2023-04-24T05:01:34;99138.69;;;13.29;65.37
27729;BME280;15126;42.186;24.340;2023-04-24T05:04:02;99141.56;;;13.17;64.69
27729;BME280;15126;42.186;24.340;2023-04-24T05:06:30;99141.56;;;13.04;65.51
27729;BME280;15126;42.186;24.340;2023-04-24T05:08:56;99141.22;;;13.02;65.34
27729;BME280;15126;42.186;24.340;2023-04-24T05:11:23;99143.72;;;12.87;65.78
27729;BME280;15126;42.186;24.340;2023-04-24T05:13:50;99142.81;;;12.90;66.57
27729;BME280;15126;42.186;24.340;2023-04-24T05:16:17;99149.22;;;12.91;66.72
27729;BME280;15126;42.186;24.340;2023-04-24T05:18:43;99152.19;;;12.96;67.88
27729;BME280;15126;42.186;24.340;2023-04-24T05:21:10;99154.88;;;13.00;67.19
27729;BME280;15126;42.186;24.340;2023-04-24T05:23:38;99145.56;;;13.16;70.47
27729;BME280;15126;42.186;24.340;2023-04-24T05:26:05;99151.22;;;13.37;68.11
27729;BME280;15126;42.186;24.340;2023-04-24T05:28:32;99141.34;;;13.45;68.25
27729;BME280;15126;42.186;24.340;2023-04-24T05:30:59;99145.72;;;13.68;66.36
27729;BME280;15126;42.186;24.340;2023-04-24T05:33:26;99149.19;;;13.72;66.40
27729;BME280;15126;42.186;24.340;2023-04-24T05:35:53;99152.00;;;13.94;66.04
27729;BME280;15126;42.186;24.340;2023-04-24T05:38:20;99151.00;;;14.09;69.51
27729;BME280;15126;42.186;24.340;2023-04-24T05:40:48;99156.06;;;14.23;66.30
27729;BME280;15126;42.186;24.340;2023-04-24T05:43:15;99137.13;;;14.37;66.47
27729;BME280;15126;42.186;24.340;2023-04-24T05:45:41;99151.13;;;14.58;63.95
27729;BME280;15126;42.186;24.340;2023-04-24T05:48:08;99152.84;;;14.65;64.56
27729;BME280;15126;42.186;24.340;2023-04-24T05:50:35;99143.66;;;14.73;67.03
27729;BME280;15126;42.186;24.340;2023-04-24T05:53:02;99146.50;;;14.82;63.17
27729;BME280;15126;42.186;24.340;2023-04-24T05:55:30;99141.47;;;14.68;62.68
27729;BME280;15126;42.186;24.340;2023-04-24T05:57:58;99138.53;;;14.72;64.77
27729;BME280;15126;42.186;24.340;2023-04-24T06:00:26;99142.13;;;14.72;64.45
27729;BME280;15126;42.186;24.340;2023-04-24T06:02:54;99132.38;;;14.55;63.04
27729;BME280;15126;42.186;24.340;2023-04-24T06:05:20;99138.13;;;14.43;64.47
27729;BME280;15126;42.186;24.340;2023-04-24T06:07:47;99128.25;;;14.38;64.28
27729;BME280;15126;42.186;24.340;2023-04-24T06:10:14;99142.56;;;14.62;65.63
27729;BME280;15126;42.186;24.340;2023-04-24T06:12:41;99119.28;;;14.52;65.87
27729;BME280;15126;42.186;24.340;2023-04-24T06:15:10;99141.03;;;14.79;65.36
27729;BME280;15126;42.186;24.340;2023-04-24T06:17:37;99137.88;;;14.68;64.94
27729;BME280;15126;42.186;24.340;2023-04-24T06:20:04;99137.03;;;14.49;63.78
27729;BME280;15126;42.186;24.340;2023-04-24T06:22:32;99148.41;;;14.85;65.94
27729;BME280;15126;42.186;24.340;2023-04-24T06:24:59;99146.06;;;14.93;64.19
27729;BME280;15126;42.186;24.340;2023-04-24T06:27:26;99144.25;;;15.08;63.49
27729;BME280;15126;42.186;24.340;2023-04-24T06:29:53;99152.34;;;15.06;62.04
27729;BME280;15126;42.186;24.340;2023-04-24T06:32:22;99131.16;;;15.23;61.58
27729;BME280;15126;42.186;24.340;2023-04-24T06:34:50;99134.47;;;15.49;61.33
27729;BME280;15126;42.186;24.340;2023-04-24T06:37:18;99130.25;;;15.54;63.38
27729;BME280;15126;42.186;24.340;2023-04-24T06:39:45;99137.88;;;15.71;62.09
27729;BME280;15126;42.186;24.340;2023-04-24T06:42:11;99138.03;;;15.95;60.03
27729;BME280;15126;42.186;24.340;2023-04-24T06:44:38;99138.28;;;16.15;60.19
27729;BME280;15126;42.186;24.340;2023-04-24T06:47:07;99119.22;;;16.19;60.84
27729;BME280;15126;42.186;24.340;2023-04-24T06:49:35;99132.41;;;16.46;59.22
27729;BME280;15126;42.186;24.340;2023-04-24T06:52:02;99131.28;;;16.61;58.92
27729;BME280;15126;42.186;24.340;2023-04-24T06:54:29;99137.25;;;16.87;60.36
27729;BME280;15126;42.186;24.340;2023-04-24T06:56:56;99140.81;;;16.97;59.35
27729;BME280;15126;42.186;24.340;2023-04-24T06:59:23;99139.25;;;16.96;60.60
27729;BME280;15126;42.186;24.340;2023-04-24T07:01:50;99135.94;;;16.97;59.73
27729;BME280;15126;42.186;24.340;2023-04-24T07:04:17;99135.47;;;17.22;57.41
27729;BME280;15126;42.186;24.340;2023-04-24T07:06:46;99140.75;;;17.30;56.38
27729;BME280;15126;42.186;24.340;2023-04-24T07:09:14;99134.94;;;17.33;57.54
27729;BME280;15126;42.186;24.340;2023-04-24T07:11:41;99146.78;;;17.37;56.56
27729;BME280;15126;42.186;24.340;2023-04-24T07:14:08;99140.13;;;17.49;58.59
27729;BME280;15126;42.186;24.340;2023-04-24T07:16:35;99144.41;;;17.68;58.24
27729;BME280;15126;42.186;24.340;2023-04-24T07:19:02;99139.53;;;17.83;58.88
27729;BME280;15126;42.186;24.340;2023-04-24T07:21:28;99131.28;;;17.42;57.26
27729;BME280;15126;42.186;24.340;2023-04-24T07:23:57;99129.50;;;17.68;55.60
27729;BME280;15126;42.186;24.340;2023-04-24T07:26:25;99127.56;;;17.50;56.42
27729;BME280;15126;42.186;24.340;2023-04-24T07:28:52;99127.81;;;17.61;54.91
27729;BME280;15126;42.186;24.340;2023-04-24T07:31:19;99125.91;;;17.67;55.92
27729;BME280;15126;42.186;24.340;2023-04-24T07:33:46;99124.66;;;17.68;54.37
27729;BME280;15126;42.186;24.340;2023-04-24T07:36:13;99123.59;;;17.80;57.30
27729;BME280;15126;42.186;24.340;2023-04-24T07:38:44;99116.97;;;17.83;56.05
27729;BME280;15126;42.186;24.340;2023-04-24T07:41:12;99120.69;;;17.90;56.09
27729;BME280;15126;42.186;24.340;2023-04-24T07:43:39;99118.94;;;17.92;52.52
27729;BME280;15126;42.186;24.340;2023-04-24T07:46:06;99126.16;;;17.93;57.83
27729;BME280;15126;42.186;24.340;2023-04-24T07:48:33;99122.44;;;17.87;53.61
27729;BME280;15126;42.186;24.340;2023-04-24T07:51:00;99120.47;;;17.78;55.68
27729;BME280;15126;42.186;24.340;2023-04-24T07:53:27;99121.34;;;17.99;58.19
27729;BME280;15126;42.186;24.340;2023-04-24T07:55:54;99123.63;;;18.10;54.42
27729;BME280;15126;42.186;24.340;2023-04-24T07:58:22;99124.47;;;18.16;52.64
27729;BME280;15126;42.186;24.340;2023-04-24T08:00:49;99124.19;;;18.28;52.84
27729;BME280;15126;42.186;24.340;2023-04-24T08:03:16;99122.31;;;18.40;56.37
27729;BME280;15126;42.186;24.340;2023-04-24T08:05:45;99120.47;;;18.66;54.08
27729;BME280;15126;42.186;24.340;2023-04-24T08:08:12;99118.22;;;18.70;51.13
27729;BME280;15126;42.186;24.340;2023-04-24T08:10:38;99113.78;;;18.49;52.28
27729;BME280;15126;42.186;24.340;2023-04-24T08:13:06;99114.16;;;18.27;53.14
27729;BME280;15126;42.186;24.340;2023-04-24T08:15:34;99117.78;;;18.28;51.30
27729;BME280;15126;42.186;24.340;2023-04-24T08:18:00;99108.81;;;18.15;51.71
27729;BME280;15126;42.186;24.340;2023-04-24T08:20:27;99116.41;;;18.09;51.50
27729;BME280;15126;42.186;24.340;2023-04-24T08:22:54;99121.56;;;17.96;53.64
27729;BME280;15126;42.186;24.340;2023-04-24T08:25:21;99097.69;;;17.67;52.53
27729;BME280;15126;42.186;24.340;2023-04-24T08:27:50;99112.41;;;17.86;52.50
27729;BME280;15126;42.186;24.340;2023-04-24T08:30:17;99108.16;;;17.91;56.26
27729;BME280;15126;42.186;24.340;2023-04-24T08:32:45;99109.78;;;17.82;56.12
27729;BME280;15126;42.186;24.340;2023-04-24T08:35:12;99107.34;;;18.05;57.28
27729;BME280;15126;42.186;24.340;2023-04-24T08:37:39;99098.00;;;18.13;52.85
27729;BME280;15126;42.186;24.340;2023-04-24T08:40:11;99082.53;;;18.09;51.88
27729;BME280;15126;42.186;24.340;2023-04-24T08:42:39;99084.00;;;18.04;54.24
27729;BME280;15126;42.186;24.340;2023-04-24T08:45:09;99081.38;;;18.15;52.96
27729;BME280;15126;42.186;24.340;2023-04-24T08:47:37;99084.06;;;18.39;52.98
27729;BME280;15126;42.186;24.340;2023-04-24T08:50:07;99074.31;;;18.55;54.94
27729;BME280;15126;42.186;24.340;2023-04-24T08:52:35;99077.13;;;18.69;52.63
27729;BME280;15126;42.186;24.340;2023-04-24T08:55:03;99070.75;;;18.74;51.92
27729;BME280;15126;42.186;24.340;2023-04-24T08:57:31;99073.59;;;18.94;53.47
27729;BME280;15126;42.186;24.340;2023-04-24T08:59:58;99060.53;;;18.97;53.94
27729;BME280;15126;42.186;24.340;2023-04-24T09:02:26;99062.81;;;19.13;53.32
27729;BME280;15126;42.186;24.340;2023-04-24T09:04:53;99049.72;;;19.16;51.66
27729;BME280;15126;42.186;24.340;2023-04-24T09:07:22;99051.75;;;19.35;54.31
27729;BME280;15126;42.186;24.340;2023-04-24T09:09:50;99054.38;;;19.39;51.82
27729;BME280;15126;42.186;24.340;2023-04-24T09:12:17;99048.63;;;19.33;54.35
27729;BME280;15126;42.186;24.340;2023-04-24T09:14:44;99053.19;;;19.25;51.89
27729;BME280;15126;42.186;24.340;2023-04-24T09:17:11;99049.41;;;19.34;54.73
27729;BME280;15126;42.186;24.340;2023-04-24T09:19:38;99046.97;;;19.41;52.55
27729;BME280;15126;42.186;24.340;2023-04-24T09:22:05;99044.88;;;19.62;54.95
27729;BME280;15126;42.186;24.340;2023-04-24T09:24:34;99038.16;;;19.85;53.63
27729;BME280;15126;42.186;24.340;2023-04-24T09:27:01;99036.00;;;19.75;51.13
27729;BME280;15126;42.186;24.340;2023-04-24T09:29:29;99026.72;;;19.74;50.72
27729;BME280;15126;42.186;24.340;2023-04-24T09:31:57;99034.97;;;20.03;54.19
27729;BME280;15126;42.186;24.340;2023-04-24T09:34:25;99033.94;;;20.06;51.11
27729;BME280;15126;42.186;24.340;2023-04-24T09:36:52;99026.25;;;19.81;49.65
27729;BME280;15126;42.186;24.340;2023-04-24T09:39:19;99026.00;;;19.79;54.26
27729;BME280;15126;42.186;24.340;2023-04-24T09:41:49;99012.19;;;19.61;52.66
27729;BME280;15126;42.186;24.340;2023-04-24T09:44:17;99004.19;;;19.85;53.21
27729;BME280;15126;42.186;24.340;2023-04-24T09:46:49;99005.41;;;20.10;53.44
27729;BME280;15126;42.186;24.340;2023-04-24T09:49:22;98999.84;;;20.21;54.38
27729;BME280;15126;42.186;24.340;2023-04-24T09:51:49;99002.31;;;20.39;50.09
27729;BME280;15126;42.186;24.340;2023-04-24T09:54:18;99002.31;;;20.39;49.69
27729;BME280;15126;42.186;24.340;2023-04-24T09:56:48;98987.75;;;20.63;52.56
27729;BME280;15126;42.186;24.340;2023-04-24T09:59:16;99002.13;;;20.48;51.69
27729;BME280;15126;42.186;24.340;2023-04-24T10:01:43;98990.63;;;20.74;52.07
27729;BME280;15126;42.186;24.340;2023-04-24T10:04:20;98967.97;;;20.74;51.53
27729;BME280;15126;42.186;24.340;2023-04-24T10:06:49;98975.75;;;20.85;49.99
27729;BME280;15126;42.186;24.340;2023-04-24T10:09:17;98984.84;;;21.05;50.29
27729;BME280;15126;42.186;24.340;2023-04-24T10:11:46;98984.31;;;21.01;48.43
27729;BME280;15126;42.186;24.340;2023-04-24T10:14:15;98969.78;;;20.77;49.50
27729;BME280;15126;42.186;24.340;2023-04-24T10:16:43;98966.97;;;20.83;50.38
27729;BME280;15126;42.186;24.340;2023-04-24T10:19:12;98972.59;;;20.71;49.65
27729;BME280;15126;42.186;24.340;2023-04-24T10:21:41;98965.72;;;20.89;49.83
27729;BME280;15126;42.186;24.340;2023-04-24T10:24:12;98954.09;;;20.82;47.56
27729;BME280;15126;42.186;24.340;2023-04-24T10:26:40;98967.59;;;21.03;47.21
27729;BME280;15126;42.186;24.340;2023-04-24T10:29:07;98963.94;;;20.97;48.26
27729;BME280;15126;42.186;24.340;2023-04-24T10:31:37;98962.63;;;20.87;48.87
27729;BME280;15126;42.186;24.340;2023-04-24T10:34:04;98956.00;;;21.07;49.17
27729;BME280;15126;42.186;24.340;2023-04-24T10:36:31;98954.75;;;21.19;49.49
27729;BME280;15126;42.186;24.340;2023-04-24T10:39:01;98947.81;;;21.31;49.88
27729;BME280;15126;42.186;24.340;2023-04-24T10:41:30;98943.19;;;21.39;48.75
27729;BME280;15126;42.186;24.340;2023-04-24T10:44:06;98942.66;;;21.29;48.70
27729;BME280;15126;42.186;24.340;2023-04-24T10:46:34;98923.31;;;21.28;48.87
27729;BME280;15126;42.186;24.340;2023-04-24T10:49:04;98931.03;;;21.22;49.26
27729;BME280;15126;42.186;24.340;2023-04-24T10:51:45;98937.25;;;21.43;49.76
27729;BME280;15126;42.186;24.340;2023-04-24T10:54:24;98939.84;;;21.41;48.42
27729;BME280;15126;42.186;24.340;2023-04-24T10:56:51;98948.09;;;21.39;48.05
27729;BME280;15126;42.186;24.340;2023-04-24T10:59:24;98934.66;;;21.28;47.29
27729;BME280;15126;42.186;24.340;2023-04-24T11:01:53;98933.38;;;21.40;46.03
27729;BME280;15126;42.186;24.340;2023-04-24T11:04:31;98938.81;;;21.44;48.41
27729;BME280;15126;42.186;24.340;2023-04-24T11:06:58;98929.53;;;21.38;49.61
27729;BME280;15126;42.186;24.340;2023-04-24T11:09:26;98930.78;;;21.36;46.61
27729;BME280;15126;42.186;24.340;2023-04-24T11:12:03;98900.59;;;21.28;49.46
27729;BME280;15126;42.186;24.340;2023-04-24T11:15:01;98903.22;;;21.43;47.20
27729;BME280;15126;42.186;24.340;2023-04-24T11:17:32;98889.81;;;21.43;50.19
27729;BME280;15126;42.186;24.340;2023-04-24T11:20:08;98894.44;;;21.52;48.08
27729;BME280;15126;42.186;24.340;2023-04-24T11:22:36;98886.19;;;21.48;47.01
27729;BME280;15126;42.186;24.340;2023-04-24T11:25:06;98884.63;;;21.19;48.30
27729;BME280;15126;42.186;24.340;2023-04-24T11:27:39;98878.16;;;21.08;49.78
27729;BME280;15126;42.186;24.340;2023-04-24T11:30:07;98870.97;;;21.23;48.75
27729;BME280;15126;42.186;24.340;2023-04-24T11:32:35;98873.00;;;21.17;47.81
27729;BME280;15126;42.186;24.340;2023-04-24T11:35:04;98880.50;;;21.20;49.82
27729;BME280;15126;42.186;24.340;2023-04-24T11:37:37;98875.06;;;21.33;48.27
27729;BME280;15126;42.186;24.340;2023-04-24T11:40:06;98875.88;;;21.45;49.94
27729;BME280;15126;42.186;24.340;2023-04-24T11:42:34;98865.28;;;21.57;49.01
27729;BME280;15126;42.186;24.340;2023-04-24T11:45:01;98867.09;;;21.76;46.76
27729;BME280;15126;42.186;24.340;2023-04-24T11:47:31;98862.19;;;21.88;47.53
27729;BME280;15126;42.186;24.340;2023-04-24T11:49:59;98854.72;;;21.57;46.79
27729;BME280;15126;42.186;24.340;2023-04-24T11:52:26;98855.44;;;21.74;46.45
27729;BME280;15126;42.186;24.340;2023-04-24T11:54:54;98844.63;;;21.62;47.52
27729;BME280;15126;42.186;24.340;2023-04-24T11:57:23;98844.63;;;21.73;47.54
27729;BME280;15126;42.186;24.340;2023-04-24T11:59:51;98850.06;;;21.87;47.37
27729;BME280;15126;42.186;24.340;2023-04-24T12:02:22;98843.34;;;21.79;47.90
27729;BME280;15126;42.186;24.340;2023-04-24T12:04:50;98824.75;;;21.78;48.66
27729;BME280;15126;42.186;24.340;2023-04-24T12:07:16;98829.41;;;21.87;47.10
27729;BME280;15126;42.186;24.340;2023-04-24T12:09:44;98831.88;;;22.18;46.07
27729;BME280;15126;42.186;24.340;2023-04-24T12:12:14;98819.41;;;22.38;46.17
27729;BME280;15126;42.186;24.340;2023-04-24T12:14:46;98801.63;;;22.26;45.25
27729;BME280;15126;42.186;24.340;2023-04-24T12:17:13;98796.03;;;22.04;45.51
27729;BME280;15126;42.186;24.340;2023-04-24T12:19:45;98782.38;;;21.97;46.26
27729;BME280;15126;42.186;24.340;2023-04-24T12:22:12;98792.91;;;22.13;46.09
27729;BME280;15126;42.186;24.340;2023-04-24T12:24:57;98771.19;;;22.21;45.49
27729;BME280;15126;42.186;24.340;2023-04-24T12:27:29;98777.41;;;22.20;46.31
27729;BME280;15126;42.186;24.340;2023-04-24T12:29:57;98769.94;;;22.17;48.04
27729;BME280;15126;42.186;24.340;2023-04-24T12:32:24;98754.94;;;22.16;46.39
27729;BME280;15126;42.186;24.340;2023-04-24T12:34:55;98744.97;;;21.99;46.95
27729;BME280;15126;42.186;24.340;2023-04-24T12:37:23;98750.38;;;21.97;47.78
27729;BME280;15126;42.186;24.340;2023-04-24T12:40:02;98761.50;;;21.89;46.41
27729;BME280;15126;42.186;24.340;2023-04-24T12:42:30;98757.63;;;21.81;46.65
27729;BME280;15126;42.186;24.340;2023-04-24T12:44:58;98779.28;;;22.01;47.39
27729;BME280;15126;42.186;24.340;2023-04-24T12:47:26;98776.47;;;21.89;47.34
27729;BME280;15126;42.186;24.340;2023-04-24T12:49:54;98783.97;;;21.87;46.98
27729;BME280;15126;42.186;24.340;2023-04-24T12:52:21;98777.50;;;21.92;47.94
27729;BME280;15126;42.186;24.340;2023-04-24T12:54:49;98763.56;;;21.94;47.77